Cangucu, Brazil
Current Conditions -  °F | °C
As of 3:00 AM on Friday 31 Oct 2014 (Local Time) from SBPK Reporting Station
Broken Clouds Broken Clouds  
Wind Chill: 64°   Ceiling: 1200
Heat Index: 64°   Visibility: 6mi
Dew Point: 64°   Wind: 3mph
Humidity: 100%   Direction: 340°NNW
Pressure: 29.88"   Gusts: NA
Location:  31.4°S, 52.68°W
Report Text: SBPK 310500Z 34003KT 9999 BKN012 BKN015 18/18 Q1012
Loading
Personal Weather Stations






























Interactive Weather Map
Tropical Storm Tracking
New forecast layout! Learn more

10-Day Weather Forecast

Advertisements
Track Severe Weather on mobile